Othello — LXOD — position and weather

sailwx.info

Track history (hours):
 
Tides and Currents Weather Stations Pressure Air Temp Water Temp Dewpoint Dewpoint Depression Visibility Wind Speed Wind Dir Waves Ship Positions

Othello

Last reported at 2016-Feb-08 09:33 UTC. Time now 2016-Feb-08 10:17 UTC.
Position N 51°25' E 001°27'.

Length 104 m; draft 5.4 m.

Type: Tanker. MMSI: 253279000.

Date/timePositionNaut miles runAvg speedWind from/ knotsBaromVisibWave heightAir tempDewpointWater temp
2016-Feb-08 09:33N 51°25' E 001°27'0 0.1
2016-Feb-08 08:33N 51°25' E 001°27'0 0.1
2016-Feb-08 07:33N 51°25' E 001°27'6 5.9
2016-Feb-08 06:33N 51°29' E 001°19'1312.6
2016-Feb-08 05:33N 51°29' E 000°59'1313.5
2016-Feb-08 04:33N 51°30' E 000°38'1111.4
2016-Feb-08 03:34N 51°27' E 000°20'8 7.8
2016-Feb-08 02:33N 51°31' E 000°08'0 0.0
2016-Feb-08 01:33N 51°31' E 000°08'0 0.0
2016-Feb-08 00:30N 51°31' E 000°08'0 0.0
2016-Feb-07 23:33N 51°31' E 000°08'0 0.0
2016-Feb-07 22:33N 51°31' E 000°08'0 0.0
2016-Feb-07 21:33N 51°31' E 000°08'0 0.0
2016-Feb-07 20:33N 51°31' E 000°08'0 0.0
2016-Feb-07 19:33N 51°31' E 000°08'0 0.0
2016-Feb-07 18:33N 51°31' E 000°08'0 0.0
2016-Feb-07 17:33N 51°31' E 000°08'0 0.0
2016-Feb-07 16:33N 51°31' E 000°08'0 0.0
2016-Feb-07 15:30N 51°31' E 000°08'0 0.0
2016-Feb-07 14:30N 51°31' E 000°08'0 0.0
2016-Feb-07 13:33N 51°31' E 000°08'0 0.0
2016-Feb-07 12:27N 51°31' E 000°08'0 0.0
2016-Feb-07 11:33N 51°31' E 000°08'0 0.0
2016-Feb-07 10:31N 51°31' E 000°08'4 4.4
2016-Feb-07 09:33N 51°29' E 000°14'8 8.2
2016-Feb-07 08:34N 51°29' E 000°27'1111.3
2016-Feb-07 07:33N 51°29' E 000°46'1211.9
2016-Feb-07 06:33N 51°30' E 001°05'1111.3
2016-Feb-07 05:33N 51°28' E 001°23'6 6.2
2016-Feb-07 04:33N 51°27' E 001°32'6 6.3
2016-Feb-07 03:33N 51°30' E 001°41'8 8.4
2016-Feb-07 02:33N 51°30' E 001°55'8 7.8
2016-Feb-07 01:33N 51°25' E 002°03'9 8.8
2016-Feb-07 00:33N 51°21' E 002°16'9 8.8
2016-Feb-06 23:33N 51°23' E 002°30'10 9.6
2016-Feb-06 22:33N 51°22' E 002°45'1211.1
2016-Feb-06 21:29N 51°25' E 003°04'1112.1
2016-Feb-06 20:33N 51°25' E 003°22'1211.6
2016-Feb-06 19:33N 51°26' E 003°40'1111.0
2016-Feb-06 18:33N 51°23' E 003°57'10 9.9
2016-Feb-06 17:33N 51°24' E 004°13'8 8.3
2016-Feb-06 16:33N 51°16' E 004°17'0 0.0
2016-Feb-06 15:34N 51°16' E 004°17'1 0.9
2016-Feb-06 14:33N 51°16' E 004°15'0 0.0
2016-Feb-06 13:32N 51°16' E 004°15'0 0.0
2016-Feb-06 12:23N 51°16' E 004°15'0 0.0
2016-Feb-06 11:32N 51°16' E 004°15'0 0.0
2016-Feb-06 10:32N 51°16' E 004°15'0 0.0
2016-Feb-06 09:32N 51°16' E 004°15'0 0.0
2016-Feb-06 08:32N 51°16' E 004°15'0 0.0
2016-Feb-06 07:26N 51°16' E 004°15'0 0.0
2016-Feb-06 06:32N 51°16' E 004°15'0 0.0
2016-Feb-06 05:32N 51°16' E 004°15'0 0.0
2016-Feb-06 04:29N 51°16' E 004°15'0 0.0
2016-Feb-06 03:32N 51°16' E 004°15'0 0.0
2016-Feb-06 02:29N 51°16' E 004°15'0 0.0
2016-Feb-06 01:32N 51°16' E 004°15'0 0.0
2016-Feb-06 00:32N 51°16' E 004°15'0 0.0
2016-Feb-05 23:20N 51°16' E 004°15'0 0.0
2016-Feb-05 22:32N 51°16' E 004°15'0 0.0
2016-Feb-05 21:29N 51°16' E 004°15'0 0.0
2016-Feb-05 20:29N 51°16' E 004°15'0 0.0
2016-Feb-05 19:26N 51°16' E 004°15'0 0.0
2016-Feb-05 18:29N 51°16' E 004°15'0 0.0
2016-Feb-05 17:29N 51°16' E 004°15'0 0.0
2016-Feb-05 16:29N 51°16' E 004°15'0 0.0
2016-Feb-05 15:32N 51°16' E 004°15'0 0.0
2016-Feb-05 14:32N 51°16' E 004°15'1 1.0
2016-Feb-05 13:34N 51°16' E 004°17'1 0.8
2016-Feb-05 12:34N 51°16' E 004°18'9 8.7
2016-Feb-05 11:33N 51°23' E 004°10'9 9.5
2016-Feb-05 10:33N 51°22' E 003°55'1212.1
2016-Feb-05 09:33N 51°26' E 003°37'1211.8
2016-Feb-05 08:33N 51°24' E 003°18'1312.6
2016-Feb-05 07:33N 51°23' E 002°58'1110.2
2016-Feb-05 06:30N 51°25' E 002°41'3 2.8
2016-Feb-05 05:28N 51°27' E 002°38'0 0.1
2016-Feb-05 04:28N 51°27' E 002°39'0 0.1
2016-Feb-05 03:25N 51°27' E 002°38'0 0.0
2016-Feb-05 02:28N 51°27' E 002°38'0 0.0
2016-Feb-05 01:22N 51°27' E 002°38'0 0.2
2016-Feb-05 00:30N 51°27' E 002°39'4 3.8
2016-Feb-04 23:26N 51°24' E 002°36'5 5.9
2016-Feb-04 22:32N 51°22' E 002°28'6 6.3
2016-Feb-04 21:32N 51°19' E 002°19'6 6.2
2016-Feb-04 20:33N 51°16' E 002°10'6 6.3
2016-Feb-04 19:33N 51°13' E 002°02'7 6.9
2016-Feb-04 18:33N 51°10' E 001°52'8 7.6
2016-Feb-04 17:33N 51°05' E 001°43'7 7.0
2016-Feb-04 16:33N 50°59' E 001°35'1110.9
2016-Feb-04 15:33N 50°50' E 001°26'  
2016-Feb-02 03:30N 41°58' W 009°57'1312.8
2016-Feb-02 02:30N 41°45' W 009°57'1111.9
2016-Feb-02 01:33N 41°33' W 009°56'1312.8
2016-Feb-02 00:33N 41°21' W 009°57'1812.1
2016-Feb-01 23:06N 41°03' W 009°57'812.7
2016-Feb-01 22:30N 40°55' W 009°56'1111.9
2016-Feb-01 21:33N 40°44' W 009°57'1312.2
2016-Feb-01 20:30N 40°31' W 009°57'1212.2
2016-Feb-01 19:33N 40°20' W 009°57'1312.9
2016-Feb-01 18:33N 40°07' W 009°57'1211.7
2016-Feb-01 17:33N 39°55' W 009°57'1212.4
2016-Feb-01 16:33N 39°43' W 009°57'1211.9
2016-Feb-01 15:33N 39°31' W 009°57'1212.0
2016-Feb-01 14:33N 39°19' W 009°57'1212.1
2016-Feb-01 13:33N 39°07' W 009°56'1212.0
2016-Feb-01 12:33N 38°55' W 009°57'1211.8
2016-Feb-01 11:33N 38°43' W 009°57'1211.6
2016-Feb-01 10:33N 38°32' W 009°54'1211.7
2016-Feb-01 09:33N 38°20' W 009°51'1212.0
2016-Feb-01 08:33N 38°08' W 009°47'1212.1
2016-Feb-01 07:32N 37°57' W 009°43'1212.3
2016-Feb-01 06:33N 37°45' W 009°40'1212.2
2016-Feb-01 05:33N 37°33' W 009°36'1212.0
2016-Feb-01 04:33N 37°21' W 009°33'1212.0
2016-Feb-01 03:33N 37°09' W 009°30'1211.9
2016-Feb-01 02:33N 36°58' W 009°26'1212.1
2016-Feb-01 01:33N 36°47' W 009°20'1110.8
2016-Feb-01 00:30N 36°40' W 009°09'1111.8
2016-Jan-31 23:32N 36°36' W 008°55'1312.9
2016-Jan-31 22:33N 36°33' W 008°40'1211.9
2016-Jan-31 21:33N 36°29' W 008°26'1312.9
2016-Jan-31 20:33N 36°25' W 008°11'4012.7
2016-Jan-31 17:26N 36°13' W 007°24'1113.0
2016-Jan-31 16:33N 36°10' W 007°10'7812.7
2016-Jan-31 10:28N 35°58' W 005°36'9 9.8
2016-Jan-31 09:33N 36°01' W 005°26'10 0.3
2016-Jan-29 21:33N 36°11' W 005°24'6 5.6
2016-Jan-29 20:32N 36°05' W 005°22'2 2.2
2016-Jan-29 19:33N 36°03' W 005°21'4 4.2
2016-Jan-29 18:33N 35°59' W 005°22'6 5.9
2016-Jan-29 17:33N 35°57' W 005°29'9 7.4
2016-Jan-29 16:23N 35°55' W 005°39'  
Track history (hours):
 
Tides and Currents Weather Stations Pressure Air Temp Water Temp Dewpoint Dewpoint Depression Visibility Wind Speed Wind Dir Waves Ship Positions

Othello

Last reported at 2016-Feb-08 09:33 UTC. Time now 2016-Feb-08 10:17 UTC.
Position N 51°25' E 001°27'.

Length 104 m; draft 5.4 m.

Type: Tanker. MMSI: 253279000.

Date/timePositionNaut miles runAvg speedWind from/ knotsBaromVisibWave heightAir tempDewpointWater temp
2016-Feb-08 09:33N 51°25' E 001°27'0 0.1
2016-Feb-08 08:33N 51°25' E 001°27'0 0.1
2016-Feb-08 07:33N 51°25' E 001°27'6 5.9
2016-Feb-08 06:33N 51°29' E 001°19'1312.6
2016-Feb-08 05:33N 51°29' E 000°59'1313.5
2016-Feb-08 04:33N 51°30' E 000°38'1111.4
2016-Feb-08 03:34N 51°27' E 000°20'8 7.8
2016-Feb-08 02:33N 51°31' E 000°08'0 0.0
2016-Feb-08 01:33N 51°31' E 000°08'0 0.0
2016-Feb-08 00:30N 51°31' E 000°08'0 0.0
2016-Feb-07 23:33N 51°31' E 000°08'0 0.0
2016-Feb-07 22:33N 51°31' E 000°08'0 0.0
2016-Feb-07 21:33N 51°31' E 000°08'0 0.0
2016-Feb-07 20:33N 51°31' E 000°08'0 0.0
2016-Feb-07 19:33N 51°31' E 000°08'0 0.0
2016-Feb-07 18:33N 51°31' E 000°08'0 0.0
2016-Feb-07 17:33N 51°31' E 000°08'0 0.0
2016-Feb-07 16:33N 51°31' E 000°08'0 0.0
2016-Feb-07 15:30N 51°31' E 000°08'0 0.0
2016-Feb-07 14:30N 51°31' E 000°08'0 0.0
2016-Feb-07 13:33N 51°31' E 000°08'0 0.0
2016-Feb-07 12:27N 51°31' E 000°08'0 0.0
2016-Feb-07 11:33N 51°31' E 000°08'0 0.0
2016-Feb-07 10:31N 51°31' E 000°08'4 4.4
2016-Feb-07 09:33N 51°29' E 000°14'8 8.2
2016-Feb-07 08:34N 51°29' E 000°27'1111.3
2016-Feb-07 07:33N 51°29' E 000°46'1211.9
2016-Feb-07 06:33N 51°30' E 001°05'1111.3
2016-Feb-07 05:33N 51°28' E 001°23'6 6.2
2016-Feb-07 04:33N 51°27' E 001°32'6 6.3
2016-Feb-07 03:33N 51°30' E 001°41'8 8.4
2016-Feb-07 02:33N 51°30' E 001°55'8 7.8
2016-Feb-07 01:33N 51°25' E 002°03'9 8.8
2016-Feb-07 00:33N 51°21' E 002°16'9 8.8
2016-Feb-06 23:33N 51°23' E 002°30'10 9.6
2016-Feb-06 22:33N 51°22' E 002°45'1211.1
2016-Feb-06 21:29N 51°25' E 003°04'1112.1
2016-Feb-06 20:33N 51°25' E 003°22'1211.6
2016-Feb-06 19:33N 51°26' E 003°40'1111.0
2016-Feb-06 18:33N 51°23' E 003°57'10 9.9
2016-Feb-06 17:33N 51°24' E 004°13'8 8.3
2016-Feb-06 16:33N 51°16' E 004°17'0 0.0
2016-Feb-06 15:34N 51°16' E 004°17'1 0.9
2016-Feb-06 14:33N 51°16' E 004°15'0 0.0
2016-Feb-06 13:32N 51°16' E 004°15'0 0.0
2016-Feb-06 12:23N 51°16' E 004°15'0 0.0
2016-Feb-06 11:32N 51°16' E 004°15'0 0.0
2016-Feb-06 10:32N 51°16' E 004°15'0 0.0
2016-Feb-06 09:32N 51°16' E 004°15'0 0.0
2016-Feb-06 08:32N 51°16' E 004°15'0 0.0
2016-Feb-06 07:26N 51°16' E 004°15'0 0.0
2016-Feb-06 06:32N 51°16' E 004°15'0 0.0
2016-Feb-06 05:32N 51°16' E 004°15'0 0.0
2016-Feb-06 04:29N 51°16' E 004°15'0 0.0
2016-Feb-06 03:32N 51°16' E 004°15'0 0.0
2016-Feb-06 02:29N 51°16' E 004°15'0 0.0
2016-Feb-06 01:32N 51°16' E 004°15'0 0.0
2016-Feb-06 00:32N 51°16' E 004°15'0 0.0
2016-Feb-05 23:20N 51°16' E 004°15'0 0.0
2016-Feb-05 22:32N 51°16' E 004°15'0 0.0
2016-Feb-05 21:29N 51°16' E 004°15'0 0.0
2016-Feb-05 20:29N 51°16' E 004°15'0 0.0
2016-Feb-05 19:26N 51°16' E 004°15'0 0.0
2016-Feb-05 18:29N 51°16' E 004°15'0 0.0
2016-Feb-05 17:29N 51°16' E 004°15'0 0.0
2016-Feb-05 16:29N 51°16' E 004°15'0 0.0
2016-Feb-05 15:32N 51°16' E 004°15'0 0.0
2016-Feb-05 14:32N 51°16' E 004°15'1 1.0
2016-Feb-05 13:34N 51°16' E 004°17'1 0.8
2016-Feb-05 12:34N 51°16' E 004°18'9 8.7
2016-Feb-05 11:33N 51°23' E 004°10'9 9.5
2016-Feb-05 10:33N 51°22' E 003°55'1212.1
2016-Feb-05 09:33N 51°26' E 003°37'1211.8
2016-Feb-05 08:33N 51°24' E 003°18'1312.6
2016-Feb-05 07:33N 51°23' E 002°58'1110.2
2016-Feb-05 06:30N 51°25' E 002°41'3 2.8
2016-Feb-05 05:28N 51°27' E 002°38'0 0.1
2016-Feb-05 04:28N 51°27' E 002°39'0 0.1
2016-Feb-05 03:25N 51°27' E 002°38'0 0.0
2016-Feb-05 02:28N 51°27' E 002°38'0 0.0
2016-Feb-05 01:22N 51°27' E 002°38'0 0.2
2016-Feb-05 00:30N 51°27' E 002°39'4 3.8
2016-Feb-04 23:26N 51°24' E 002°36'5 5.9
2016-Feb-04 22:32N 51°22' E 002°28'6 6.3
2016-Feb-04 21:32N 51°19' E 002°19'6 6.2
2016-Feb-04 20:33N 51°16' E 002°10'6 6.3
2016-Feb-04 19:33N 51°13' E 002°02'7 6.9
2016-Feb-04 18:33N 51°10' E 001°52'8 7.6
2016-Feb-04 17:33N 51°05' E 001°43'7 7.0
2016-Feb-04 16:33N 50°59' E 001°35'1110.9
2016-Feb-04 15:33N 50°50' E 001°26'  
2016-Feb-02 03:30N 41°58' W 009°57'1312.8
2016-Feb-02 02:30N 41°45' W 009°57'1111.9
2016-Feb-02 01:33N 41°33' W 009°56'1312.8
2016-Feb-02 00:33N 41°21' W 009°57'1812.1
2016-Feb-01 23:06N 41°03' W 009°57'812.7
2016-Feb-01 22:30N 40°55' W 009°56'1111.9
2016-Feb-01 21:33N 40°44' W 009°57'1312.2
2016-Feb-01 20:30N 40°31' W 009°57'1212.2
2016-Feb-01 19:33N 40°20' W 009°57'1312.9
2016-Feb-01 18:33N 40°07' W 009°57'1211.7
2016-Feb-01 17:33N 39°55' W 009°57'1212.4
2016-Feb-01 16:33N 39°43' W 009°57'1211.9
2016-Feb-01 15:33N 39°31' W 009°57'1212.0
2016-Feb-01 14:33N 39°19' W 009°57'1212.1
2016-Feb-01 13:33N 39°07' W 009°56'1212.0
2016-Feb-01 12:33N 38°55' W 009°57'1211.8
2016-Feb-01 11:33N 38°43' W 009°57'1211.6
2016-Feb-01 10:33N 38°32' W 009°54'1211.7
2016-Feb-01 09:33N 38°20' W 009°51'1212.0
2016-Feb-01 08:33N 38°08' W 009°47'1212.1
2016-Feb-01 07:32N 37°57' W 009°43'1212.3
2016-Feb-01 06:33N 37°45' W 009°40'1212.2
2016-Feb-01 05:33N 37°33' W 009°36'1212.0
2016-Feb-01 04:33N 37°21' W 009°33'1212.0
2016-Feb-01 03:33N 37°09' W 009°30'1211.9
2016-Feb-01 02:33N 36°58' W 009°26'1212.1
2016-Feb-01 01:33N 36°47' W 009°20'1110.8
2016-Feb-01 00:30N 36°40' W 009°09'1111.8
2016-Jan-31 23:32N 36°36' W 008°55'1312.9
2016-Jan-31 22:33N 36°33' W 008°40'1211.9
2016-Jan-31 21:33N 36°29' W 008°26'1312.9
2016-Jan-31 20:33N 36°25' W 008°11'4012.7
2016-Jan-31 17:26N 36°13' W 007°24'1113.0
2016-Jan-31 16:33N 36°10' W 007°10'7812.7
2016-Jan-31 10:28N 35°58' W 005°36'9 9.8
2016-Jan-31 09:33N 36°01' W 005°26'10 0.3
2016-Jan-29 21:33N 36°11' W 005°24'6 5.6
2016-Jan-29 20:32N 36°05' W 005°22'2 2.2
2016-Jan-29 19:33N 36°03' W 005°21'4 4.2
2016-Jan-29 18:33N 35°59' W 005°22'6 5.9
2016-Jan-29 17:33N 35°57' W 005°29'9 7.4
2016-Jan-29 16:23N 35°55' W 005°39'  

Dump ship's entire track history